createdAt,value
2018-07-16T00:00:41.065Z,5.60
2018-07-16T00:03:09.410Z,6.22
2018-07-16T00:05:37.821Z,5.62
2018-07-16T00:08:06.515Z,5.90
2018-07-16T00:10:34.931Z,6.03
2018-07-16T00:13:03.300Z,6.30
2018-07-16T00:15:31.922Z,6.47
2018-07-16T00:18:00.300Z,6.60
2018-07-16T00:20:28.670Z,5.53
2018-07-16T00:22:57.049Z,5.15
2018-07-16T00:25:25.404Z,4.90
2018-07-16T00:27:53.921Z,4.97
2018-07-16T00:30:22.309Z,4.92
2018-07-16T00:32:50.719Z,5.00
2018-07-16T00:35:19.091Z,5.58
2018-07-16T00:37:47.459Z,5.42
2018-07-16T00:40:15.795Z,4.92
2018-07-16T00:42:44.175Z,4.85
2018-07-16T00:45:12.529Z,4.42
2018-07-16T00:47:40.906Z,5.03
2018-07-16T00:50:09.262Z,5.08
2018-07-16T00:52:37.635Z,5.00
2018-07-16T00:55:06.072Z,5.05
2018-07-16T00:57:34.520Z,6.55
2018-07-16T01:00:02.841Z,6.40
2018-07-16T01:02:31.215Z,6.25
2018-07-16T01:04:59.674Z,5.12
2018-07-16T01:07:28.025Z,5.70
2018-07-16T01:09:56.399Z,5.17
2018-07-16T01:12:24.826Z,6.70
2018-07-16T01:14:53.168Z,6.33
2018-07-16T01:17:21.577Z,6.17
2018-07-16T01:19:50.501Z,7.60
2018-07-16T01:22:19.027Z,8.88
2018-07-16T01:24:47.425Z,10.98
2018-07-16T01:27:15.858Z,9.58
2018-07-16T01:29:44.232Z,10.08
2018-07-16T01:32:12.614Z,16.20
2018-07-16T01:34:41.027Z,14.60
2018-07-16T01:37:09.444Z,18.50
2018-07-16T01:39:37.819Z,17.10
2018-07-16T01:42:07.248Z,15.57
2018-07-16T01:44:35.689Z,14.27
2018-07-16T01:47:04.129Z,12.20
2018-07-16T01:49:32.548Z,12.03
2018-07-16T01:52:00.954Z,12.10
2018-07-16T01:54:29.348Z,12.30
2018-07-16T01:56:57.735Z,10.47
2018-07-16T01:59:26.206Z,10.23
2018-07-16T02:01:54.597Z,9.27
2018-07-16T02:04:23.033Z,9.90
2018-07-16T02:06:51.412Z,9.13
2018-07-16T02:09:19.864Z,8.63
2018-07-16T02:11:48.298Z,9.60
2018-07-16T02:14:16.697Z,8.80
2018-07-16T02:16:45.128Z,8.17
2018-07-16T02:19:13.575Z,7.83
2018-07-16T02:21:41.994Z,8.47
2018-07-16T02:24:10.109Z,8.20
2018-07-16T02:26:38.495Z,9.30
2018-07-16T02:29:06.882Z,7.70
2018-07-16T02:31:35.261Z,7.50
2018-07-16T02:34:03.787Z,8.13
2018-07-16T02:36:32.193Z,8.80
2018-07-16T02:39:00.575Z,7.42
2018-07-16T02:41:28.949Z,8.80
2018-07-16T02:43:57.310Z,7.97
2018-07-16T02:46:25.393Z,8.27
2018-07-16T02:48:53.826Z,8.30
2018-07-16T02:51:22.221Z,7.67
2018-07-16T02:53:50.652Z,8.17
2018-07-16T02:56:19.085Z,8.77
2018-07-16T02:58:47.469Z,8.23
2018-07-16T03:01:15.869Z,7.47
2018-07-16T03:03:44.313Z,8.48
2018-07-16T03:06:12.730Z,8.33
2018-07-16T03:08:41.161Z,9.10
2018-07-16T03:11:09.577Z,9.40
2018-07-16T03:13:38.024Z,8.53
2018-07-16T03:16:06.399Z,9.67
2018-07-16T03:18:34.858Z,9.73
2018-07-16T03:21:03.241Z,9.00
2018-07-16T03:23:31.646Z,8.70
2018-07-16T03:26:00.031Z,8.35
2018-07-16T03:28:28.494Z,7.60
2018-07-16T03:30:56.938Z,9.13
2018-07-16T03:33:25.478Z,8.77
2018-07-16T03:35:53.936Z,8.88
2018-07-16T03:38:22.341Z,9.33
2018-07-16T03:40:50.727Z,8.63
2018-07-16T03:43:21.999Z,9.03
2018-07-16T03:45:50.448Z,8.57
2018-07-16T03:48:18.835Z,8.67
2018-07-16T03:50:47.313Z,8.33
2018-07-16T03:53:15.703Z,8.57
2018-07-16T03:55:44.329Z,8.40
2018-07-16T03:58:12.663Z,8.93
2018-07-16T04:00:41.095Z,8.23
2018-07-16T04:03:09.478Z,7.87
2018-07-16T04:05:37.873Z,8.73
2018-07-16T04:08:06.424Z,8.37
2018-07-16T04:10:34.899Z,8.37
2018-07-16T04:13:03.303Z,8.20
2018-07-16T04:15:31.715Z,8.37
2018-07-16T04:18:00.150Z,8.13
2018-07-16T04:20:28.572Z,8.90
2018-07-16T04:22:56.994Z,8.28
2018-07-16T04:25:25.431Z,7.87
2018-07-16T04:27:53.933Z,8.57
2018-07-16T04:30:22.336Z,8.10
2018-07-16T04:32:50.711Z,9.03
2018-07-16T04:35:19.248Z,8.77
2018-07-16T04:37:47.659Z,8.20
2018-07-16T04:40:16.104Z,8.10
2018-07-16T04:42:44.524Z,8.17
2018-07-16T04:45:12.915Z,8.50
2018-07-16T04:47:41.319Z,8.20
2018-07-16T04:50:09.749Z,7.15
2018-07-16T04:52:38.189Z,8.35
2018-07-16T04:55:07.213Z,7.85
2018-07-16T04:57:35.594Z,7.12
2018-07-16T05:00:04.426Z,8.83
2018-07-16T05:02:32.824Z,8.68
2018-07-16T05:05:01.255Z,8.93
2018-07-16T05:07:29.685Z,8.35
2018-07-16T05:09:58.109Z,7.30
2018-07-16T05:12:26.530Z,7.92
2018-07-16T05:14:54.961Z,7.20
2018-07-16T05:17:23.362Z,7.75
2018-07-16T05:19:58.119Z,7.90
2018-07-16T05:22:26.491Z,6.97
2018-07-16T05:24:54.886Z,6.25
2018-07-16T05:27:23.779Z,6.12
2018-07-16T05:29:52.262Z,7.35
2018-07-16T05:32:20.505Z,5.50
2018-07-16T05:34:48.827Z,5.83
2018-07-16T05:37:17.654Z,4.95
2018-07-16T05:39:46.053Z,6.17
2018-07-16T05:42:14.550Z,5.70
2018-07-16T05:44:42.968Z,5.12
2018-07-16T05:47:11.657Z,5.30
2018-07-16T05:49:40.074Z,5.47
2018-07-16T05:52:08.505Z,5.92
2018-07-16T05:54:36.922Z,5.95
2018-07-16T05:57:05.391Z,5.90
2018-07-16T05:59:33.813Z,5.92
2018-07-16T06:02:02.318Z,5.22
2018-07-16T06:04:30.811Z,5.80
2018-07-16T06:06:59.330Z,4.83
2018-07-16T06:09:27.732Z,6.37
2018-07-16T06:11:56.243Z,5.22
2018-07-16T06:14:24.729Z,4.97
2018-07-16T06:16:53.206Z,5.40
2018-07-16T06:19:21.664Z,5.80
2018-07-16T06:21:50.413Z,4.50
2018-07-16T06:24:18.811Z,4.53
2018-07-16T06:26:47.215Z,5.05
2018-07-16T06:29:15.654Z,5.33
2018-07-16T06:31:44.496Z,4.20
2018-07-16T06:34:12.960Z,4.10
2018-07-16T06:36:41.425Z,4.12
2018-07-16T06:39:09.834Z,3.80
2018-07-16T06:41:38.282Z,3.50
2018-07-16T06:44:06.887Z,4.35
2018-07-16T06:46:35.339Z,3.75
2018-07-16T06:49:03.774Z,4.40
2018-07-16T06:51:32.217Z,3.80
2018-07-16T06:54:00.862Z,4.75
2018-07-16T06:56:29.297Z,4.08
2018-07-16T06:58:57.677Z,4.17
2018-07-16T07:01:26.108Z,4.08
2018-07-16T07:03:54.486Z,3.80
2018-07-16T07:06:23.045Z,3.80
2018-07-16T07:08:51.535Z,3.75
2018-07-16T07:11:19.978Z,4.40
2018-07-16T07:13:48.435Z,4.50
2018-07-16T07:16:16.891Z,3.52
2018-07-16T07:18:45.302Z,3.55
2018-07-16T07:21:13.871Z,3.30
2018-07-16T07:23:42.301Z,4.67
2018-07-16T07:26:10.734Z,4.45
2018-07-16T07:28:39.331Z,5.20
2018-07-16T07:31:07.950Z,4.28
2018-07-16T07:33:36.396Z,4.40
2018-07-16T07:36:04.907Z,4.60
2018-07-16T07:38:33.453Z,4.05
2018-07-16T07:41:01.853Z,4.00
2018-07-16T07:43:30.647Z,4.15
2018-07-16T07:45:59.103Z,4.70
2018-07-16T07:49:52.016Z,4.20
2018-07-16T07:52:20.641Z,3.37
2018-07-16T07:54:49.317Z,4.55
2018-07-16T07:57:17.970Z,4.53
2018-07-16T07:59:46.407Z,3.67
2018-07-16T08:02:15.012Z,3.90
2018-07-16T08:04:43.431Z,3.95
2018-07-16T08:07:13.613Z,3.83
2018-07-16T08:09:48.300Z,3.47
2018-07-16T08:12:16.797Z,3.87
2018-07-16T08:14:45.207Z,4.35
2018-07-16T08:17:13.680Z,4.12
2018-07-16T08:19:42.257Z,4.55
2018-07-16T08:22:10.693Z,3.22
2018-07-16T08:24:39.320Z,3.42
2018-07-16T08:27:07.838Z,3.30
2018-07-16T08:29:36.304Z,3.58
2018-07-16T08:32:04.798Z,3.42
2018-07-16T08:34:33.284Z,3.20
2018-07-16T08:37:02.094Z,3.67
2018-07-16T08:39:30.546Z,4.20
2018-07-16T08:41:58.941Z,4.22
2018-07-16T08:44:27.910Z,3.80
2018-07-16T08:46:56.535Z,3.65
2018-07-16T08:49:24.996Z,3.95
2018-07-16T08:51:53.505Z,3.83
2018-07-16T08:54:21.996Z,4.97
2018-07-16T08:56:50.429Z,4.50
2018-07-16T08:59:18.979Z,3.70
2018-07-16T09:01:47.329Z,3.62
2018-07-16T09:04:15.545Z,4.65
2018-07-16T09:06:43.975Z,4.17
2018-07-16T09:09:12.427Z,5.22
2018-07-16T09:11:40.869Z,4.72
2018-07-16T09:14:09.367Z,4.67
2018-07-16T09:16:37.858Z,4.78
2018-07-16T09:19:06.464Z,5.53
2018-07-16T09:21:35.658Z,4.40
2018-07-16T09:24:04.251Z,5.62
2018-07-16T09:26:32.801Z,4.30
2018-07-16T09:29:01.241Z,5.40
2018-07-16T09:31:29.627Z,5.58
2018-07-16T09:33:58.029Z,4.35
2018-07-16T09:36:26.570Z,4.95
2018-07-16T09:38:54.989Z,4.55
2018-07-16T09:41:23.363Z,4.03
2018-07-16T09:43:51.892Z,4.05
2018-07-16T09:46:20.510Z,4.15
2018-07-16T09:48:48.974Z,4.92
2018-07-16T09:51:17.569Z,4.20
2018-07-16T09:53:46.083Z,4.03
2018-07-16T09:56:14.711Z,4.17
2018-07-16T09:58:43.197Z,4.30
2018-07-16T10:01:17.158Z,4.08
2018-07-16T10:03:45.589Z,3.30
2018-07-16T10:06:14.003Z,4.35
2018-07-16T10:08:42.458Z,4.10
2018-07-16T10:11:10.852Z,3.55
2018-07-16T10:13:39.269Z,3.00
2018-07-16T10:16:07.695Z,2.65
2018-07-16T10:18:36.210Z,2.98
2018-07-16T10:21:04.652Z,2.92
2018-07-16T10:23:33.072Z,3.02
2018-07-16T10:26:01.536Z,3.00
2018-07-16T10:28:29.995Z,2.30
2018-07-16T10:30:58.417Z,2.70
2018-07-16T10:33:26.852Z,2.30
2018-07-16T10:35:55.009Z,2.80
2018-07-16T10:38:23.419Z,2.55
2018-07-16T10:40:51.858Z,4.03
2018-07-16T10:43:20.290Z,2.72
2018-07-16T10:45:48.895Z,2.40
2018-07-16T10:48:16.983Z,2.30
2018-07-16T10:50:45.443Z,1.90
2018-07-16T10:53:13.852Z,1.75
2018-07-16T10:55:42.389Z,1.87
2018-07-16T10:58:10.775Z,2.05
2018-07-16T11:00:39.233Z,2.47
2018-07-16T11:03:07.736Z,2.17
2018-07-16T11:05:36.262Z,1.90
2018-07-16T11:08:04.799Z,2.08
2018-07-16T11:10:33.261Z,2.12
2018-07-16T11:13:01.706Z,1.80
2018-07-16T11:15:30.323Z,2.22
2018-07-16T11:17:58.870Z,1.42
2018-07-16T11:20:27.375Z,1.60
2018-07-16T11:22:55.807Z,1.52
2018-07-16T11:25:24.318Z,2.10
2018-07-16T11:27:52.706Z,1.92
2018-07-16T11:30:21.152Z,2.08
2018-07-16T11:32:49.595Z,1.52
2018-07-16T11:35:18.060Z,3.60
2018-07-16T11:37:46.500Z,1.90
2018-07-16T11:40:14.921Z,1.90
2018-07-16T11:42:43.375Z,1.87
2018-07-16T11:45:11.845Z,2.02
2018-07-16T11:47:40.257Z,1.80
2018-07-16T11:50:08.695Z,2.02
2018-07-16T11:52:37.147Z,1.98
2018-07-16T11:55:05.662Z,1.72
2018-07-16T11:57:34.039Z,1.70
2018-07-16T12:00:02.645Z,1.40
2018-07-16T12:02:31.060Z,1.45
2018-07-16T12:04:59.442Z,1.55
2018-07-16T12:07:27.879Z,1.65
2018-07-16T12:09:56.297Z,1.35
2018-07-16T12:12:24.927Z,1.77
2018-07-16T12:14:53.297Z,1.70
2018-07-16T12:17:21.748Z,1.50
2018-07-16T12:19:50.230Z,1.42
2018-07-16T12:22:18.662Z,1.40
2018-07-16T12:24:47.101Z,1.32
2018-07-16T12:27:15.540Z,1.87
2018-07-16T12:29:45.454Z,1.65
2018-07-16T12:32:16.151Z,1.50
2018-07-16T12:34:45.753Z,1.25
2018-07-16T12:37:15.064Z,1.60
2018-07-16T12:39:44.080Z,1.57
2018-07-16T12:42:12.524Z,1.50
2018-07-16T12:44:41.753Z,1.57
2018-07-16T12:47:10.208Z,1.52
2018-07-16T12:49:38.753Z,1.67
2018-07-16T12:52:07.251Z,1.30
2018-07-16T12:54:35.684Z,1.50
2018-07-16T12:57:04.177Z,1.50
2018-07-16T12:59:32.600Z,1.12
2018-07-16T13:02:01.112Z,1.40
2018-07-16T13:04:29.587Z,1.30
2018-07-16T13:06:58.054Z,1.47
2018-07-16T13:09:26.487Z,3.62
2018-07-16T13:11:54.914Z,1.82
2018-07-16T13:14:23.307Z,2.40
2018-07-16T13:16:51.796Z,3.67
2018-07-16T13:19:20.201Z,3.08
2018-07-16T13:21:48.703Z,1.72
2018-07-16T13:24:17.130Z,1.00
2018-07-16T13:26:45.722Z,1.50
2018-07-16T13:29:13.821Z,1.52
2018-07-16T13:31:42.296Z,0.90
2018-07-16T13:34:11.019Z,0.95
2018-07-16T13:36:39.486Z,1.00
2018-07-16T13:39:10.053Z,1.20
2018-07-16T13:41:38.508Z,1.30
2018-07-16T13:44:07.299Z,1.30
2018-07-16T13:46:35.934Z,1.30
2018-07-16T13:49:04.380Z,1.40
2018-07-16T13:51:32.898Z,1.50
2018-07-16T13:54:01.782Z,1.30
2018-07-16T13:56:30.303Z,1.20
2018-07-16T13:58:58.740Z,1.40
2018-07-16T14:01:27.323Z,1.17
2018-07-16T14:03:55.767Z,1.30
2018-07-16T14:06:24.199Z,1.62
2018-07-16T14:08:52.715Z,1.45
2018-07-16T14:11:21.102Z,1.30
2018-07-16T14:13:49.656Z,1.50
2018-07-16T14:16:18.213Z,1.80
2018-07-16T14:18:46.728Z,3.25
2018-07-16T14:21:15.155Z,4.90
2018-07-16T14:23:43.615Z,6.75
2018-07-16T14:26:12.019Z,2.87
2018-07-16T14:28:40.498Z,2.12
2018-07-16T14:31:08.929Z,1.90
2018-07-16T14:33:37.378Z,2.10
2018-07-16T14:36:05.878Z,2.05
2018-07-16T14:38:34.326Z,1.67
2018-07-16T14:41:02.767Z,2.67
2018-07-16T14:43:31.278Z,4.20
2018-07-16T14:45:59.714Z,2.30
2018-07-16T14:48:28.133Z,2.98
2018-07-16T14:50:56.499Z,5.12
2018-07-16T14:53:25.015Z,7.25
2018-07-16T14:55:53.413Z,4.95
2018-07-16T14:58:21.857Z,1.85
2018-07-16T15:00:50.249Z,2.60
2018-07-16T15:03:18.876Z,2.37
2018-07-16T15:05:47.302Z,2.12
2018-07-16T15:08:18.587Z,2.10
2018-07-16T15:10:47.039Z,2.08
2018-07-16T15:13:15.495Z,2.67
2018-07-16T15:15:43.962Z,4.83
2018-07-16T15:18:14.022Z,7.00
2018-07-16T15:20:42.587Z,3.10
2018-07-16T15:23:10.854Z,3.20
2018-07-16T15:25:39.282Z,2.47
2018-07-16T15:28:07.766Z,2.45
2018-07-16T15:30:36.231Z,1.75
2018-07-16T15:33:04.934Z,2.00
2018-07-16T15:35:33.400Z,2.75
2018-07-16T15:38:01.809Z,1.70
2018-07-16T15:40:30.326Z,1.60
2018-07-16T15:42:59.129Z,1.90
2018-07-16T15:45:27.764Z,2.95
2018-07-16T15:47:56.440Z,1.87
2018-07-16T15:50:24.910Z,1.70
2018-07-16T15:52:53.354Z,1.80
2018-07-16T15:55:21.854Z,2.33
2018-07-16T15:57:50.283Z,1.75
2018-07-16T16:00:18.930Z,5.20
2018-07-16T16:02:47.408Z,2.60
2018-07-16T16:05:15.956Z,2.10
2018-07-16T16:07:44.363Z,1.90
2018-07-16T16:10:12.772Z,2.15
2018-07-16T16:12:41.196Z,1.95
2018-07-16T16:15:09.592Z,1.70
2018-07-16T16:17:37.996Z,1.90
2018-07-16T16:20:07.848Z,1.70
2018-07-16T16:22:36.661Z,1.98
2018-07-16T16:25:05.420Z,1.67
2018-07-16T16:27:33.867Z,2.02
2018-07-16T16:30:02.831Z,1.77
2018-07-16T16:32:32.357Z,1.92
2018-07-16T16:35:01.015Z,1.85
2018-07-16T16:37:29.458Z,1.90
2018-07-16T16:39:57.942Z,1.62
2018-07-16T16:42:39.355Z,1.92
2018-07-16T16:45:07.894Z,1.87
2018-07-16T16:47:36.409Z,1.77
2018-07-16T16:50:05.328Z,1.72
2018-07-16T16:52:33.821Z,2.33
2018-07-16T16:55:02.307Z,2.42
2018-07-16T16:57:30.730Z,2.30
2018-07-16T16:59:59.230Z,2.20
2018-07-16T17:02:27.685Z,2.20
2018-07-16T17:04:56.241Z,2.83
2018-07-16T17:07:24.636Z,3.42
2018-07-16T17:09:53.203Z,2.70
2018-07-16T17:12:21.682Z,2.67
2018-07-16T17:14:50.197Z,2.80
2018-07-16T17:17:18.652Z,2.58
2018-07-16T17:19:47.173Z,2.60
2018-07-16T17:22:15.709Z,3.17
2018-07-16T17:24:45.364Z,10.20
2018-07-16T17:27:13.772Z,2.85
2018-07-16T17:29:42.265Z,7.85
2018-07-16T17:32:10.815Z,4.45
2018-07-16T17:34:39.668Z,6.00
2018-07-16T17:37:08.186Z,7.83
2018-07-16T17:39:36.711Z,11.25
2018-07-16T17:42:05.188Z,6.45
2018-07-16T17:44:33.637Z,16.32
2018-07-16T17:47:02.144Z,11.35
2018-07-16T17:49:30.637Z,5.55
2018-07-16T17:51:59.129Z,4.05
2018-07-16T17:54:27.588Z,2.80
2018-07-16T17:56:56.030Z,4.28
2018-07-16T17:59:24.530Z,5.15
2018-07-16T18:01:52.970Z,3.90
2018-07-16T18:04:21.450Z,3.25
2018-07-16T18:06:49.950Z,3.90
2018-07-16T18:09:18.347Z,3.72
2018-07-16T18:11:46.918Z,9.00
2018-07-16T18:14:15.372Z,6.33
2018-07-16T18:16:43.906Z,6.25
2018-07-16T18:19:12.309Z,5.62
2018-07-16T18:21:40.793Z,6.95
2018-07-16T18:24:09.282Z,21.77
2018-07-16T18:26:37.737Z,22.05
2018-07-16T18:29:06.522Z,34.25
2018-07-16T18:31:35.116Z,9.05
2018-07-16T18:34:03.891Z,5.37
2018-07-16T18:36:32.519Z,22.60
2018-07-16T18:39:01.065Z,31.68
2018-07-16T18:41:29.578Z,34.73
2018-07-16T18:43:57.898Z,17.20
2018-07-16T18:46:26.903Z,12.30
2018-07-16T18:48:55.462Z,8.50
2018-07-16T18:51:23.998Z,10.10
2018-07-16T18:53:52.807Z,6.85
2018-07-16T18:56:21.284Z,13.30
2018-07-16T18:58:49.711Z,11.08
2018-07-16T19:01:18.280Z,4.78
2018-07-16T19:03:46.953Z,4.25
2018-07-16T19:06:15.729Z,4.10
2018-07-16T19:08:44.294Z,3.50
2018-07-16T19:11:12.761Z,3.37
2018-07-16T19:13:41.517Z,3.75
2018-07-16T19:16:09.981Z,4.20
2018-07-16T19:18:38.392Z,4.00
2018-07-16T19:21:06.851Z,4.28
2018-07-16T19:23:35.371Z,5.37
2018-07-16T19:26:03.856Z,7.87
2018-07-16T19:28:32.314Z,11.28
2018-07-16T19:31:00.833Z,15.08
2018-07-16T19:33:29.224Z,9.33
2018-07-16T19:35:57.811Z,7.50
2018-07-16T19:38:26.294Z,5.12
2018-07-16T19:40:54.795Z,4.20
2018-07-16T19:43:23.331Z,4.00
2018-07-16T19:45:51.747Z,4.45
2018-07-16T19:48:20.235Z,3.92
2018-07-16T19:50:50.823Z,4.62
2018-07-16T19:53:19.365Z,4.92
2018-07-16T19:55:47.977Z,5.28
2018-07-16T19:58:16.529Z,4.45
2018-07-16T20:00:45.154Z,4.60
2018-07-16T20:03:15.335Z,6.92
2018-07-16T20:05:43.960Z,10.80
2018-07-16T20:08:12.532Z,8.18
2018-07-16T20:10:40.919Z,6.47
2018-07-16T20:13:09.452Z,5.65
2018-07-16T20:15:38.051Z,5.22
2018-07-16T20:18:06.473Z,4.75
2018-07-16T20:20:44.003Z,4.33
2018-07-16T20:23:12.415Z,4.55
2018-07-16T20:25:40.958Z,4.20
2018-07-16T20:28:09.579Z,4.22
2018-07-16T20:30:38.043Z,4.40
2018-07-16T20:33:07.061Z,4.62
2018-07-16T20:35:35.526Z,5.03
2018-07-16T20:38:04.014Z,5.83
2018-07-16T20:40:32.437Z,13.22
2018-07-16T20:43:00.911Z,10.98
2018-07-16T20:45:29.395Z,5.65
2018-07-16T20:47:58.114Z,4.95
2018-07-16T20:50:26.992Z,4.78
2018-07-16T20:52:55.509Z,4.25
2018-07-16T20:55:24.045Z,3.75
2018-07-16T20:57:52.544Z,3.80
2018-07-16T21:00:21.294Z,4.12
2018-07-16T21:02:49.773Z,3.62
2018-07-16T21:05:18.206Z,4.08
2018-07-16T21:07:46.679Z,4.20
2018-07-16T21:10:15.170Z,4.53
2018-07-16T21:12:43.865Z,4.10
2018-07-16T21:15:12.345Z,4.03
2018-07-16T21:17:41.065Z,4.17
2018-07-16T21:20:11.215Z,4.50
2018-07-16T21:22:40.842Z,4.50
2018-07-16T21:25:10.318Z,4.12
2018-07-16T21:27:38.764Z,4.15
2018-07-16T21:30:07.331Z,4.47
2018-07-16T21:32:35.718Z,4.62
2018-07-16T21:35:04.368Z,3.62
2018-07-16T21:37:33.052Z,4.70
2018-07-16T21:40:01.543Z,4.30
2018-07-16T21:42:29.950Z,4.33
2018-07-16T21:44:58.413Z,4.60
2018-07-16T21:47:26.953Z,4.50
2018-07-16T21:49:55.403Z,4.60
2018-07-16T21:52:23.882Z,4.70
2018-07-16T21:54:52.305Z,5.05
2018-07-16T21:57:20.718Z,4.22
2018-07-16T21:59:49.138Z,4.37
2018-07-16T22:02:17.567Z,4.60
2018-07-16T22:04:45.987Z,4.92
2018-07-16T22:07:14.368Z,4.15
2018-07-16T22:09:42.902Z,4.25
2018-07-16T22:12:11.311Z,4.33
2018-07-16T22:14:39.766Z,4.28
2018-07-16T22:17:08.345Z,4.42
2018-07-16T22:19:36.803Z,3.50
2018-07-16T22:22:05.247Z,3.37
2018-07-16T22:24:33.818Z,3.62
2018-07-16T22:27:02.268Z,3.52
2018-07-16T22:29:30.726Z,3.77
2018-07-16T22:31:59.171Z,3.30
2018-07-16T22:34:27.631Z,3.25
2018-07-16T22:36:56.089Z,3.15
2018-07-16T22:39:24.520Z,3.40
2018-07-16T22:41:52.975Z,3.52
2018-07-16T22:44:21.395Z,3.17
2018-07-16T22:46:50.457Z,3.47
2018-07-16T22:49:18.902Z,3.87
2018-07-16T22:51:47.305Z,3.80
2018-07-16T22:54:15.704Z,4.10
2018-07-16T22:56:44.123Z,4.08
2018-07-16T22:59:12.533Z,4.25
2018-07-16T23:01:40.941Z,3.67
2018-07-16T23:04:09.354Z,4.30
2018-07-16T23:06:37.842Z,4.00
2018-07-16T23:09:13.254Z,3.70
2018-07-16T23:11:41.685Z,3.65
2018-07-16T23:14:10.139Z,3.80
2018-07-16T23:16:38.536Z,3.58
2018-07-16T23:19:07.044Z,3.90
2018-07-16T23:21:35.538Z,4.30
2018-07-16T23:24:04.129Z,3.90
2018-07-16T23:26:32.521Z,3.95
2018-07-16T23:29:00.983Z,3.20
2018-07-16T23:31:29.110Z,4.17
2018-07-16T23:33:57.492Z,4.55
2018-07-16T23:36:25.928Z,4.03
2018-07-16T23:38:54.322Z,3.85
2018-07-16T23:41:22.737Z,4.08
2018-07-16T23:43:51.126Z,4.08
2018-07-16T23:46:19.538Z,4.12
2018-07-16T23:48:47.924Z,3.60
2018-07-16T23:51:16.345Z,4.00
2018-07-16T23:53:44.770Z,4.50
2018-07-16T23:56:20.053Z,4.55
2018-07-16T23:58:48.450Z,5.03
